sensor_id;sensor_type;location;lat;lon;timestamp;P1;durP1;ratioP1;P2;durP2;ratioP2
66669;SDS011;53568;52.164;4.472;2023-10-13T00:01:55;4.14;;;3.49;;
66669;SDS011;53568;52.164;4.472;2023-10-13T00:04:24;4.60;;;3.98;;
66669;SDS011;53568;52.164;4.472;2023-10-13T00:06:51;3.93;;;3.37;;
66669;SDS011;53568;52.164;4.472;2023-10-13T00:09:24;4.17;;;3.55;;
66669;SDS011;53568;52.164;4.472;2023-10-13T00:11:51;4.58;;;3.79;;
66669;SDS011;53568;52.164;4.472;2023-10-13T00:14:21;4.62;;;3.84;;
66669;SDS011;53568;52.164;4.472;2023-10-13T00:16:47;4.22;;;3.55;;
66669;SDS011;53568;52.164;4.472;2023-10-13T00:19:32;4.10;;;3.46;;
66669;SDS011;53568;52.164;4.472;2023-10-13T00:22:17;3.38;;;2.87;;
66669;SDS011;53568;52.164;4.472;2023-10-13T00:24:44;3.89;;;3.28;;
66669;SDS011;53568;52.164;4.472;2023-10-13T00:27:14;3.82;;;3.24;;
66669;SDS011;53568;52.164;4.472;2023-10-13T00:30:02;3.69;;;3.14;;
66669;SDS011;53568;52.164;4.472;2023-10-13T00:32:50;3.81;;;3.30;;
66669;SDS011;53568;52.164;4.472;2023-10-13T00:35:20;3.92;;;3.41;;
66669;SDS011;53568;52.164;4.472;2023-10-13T00:38:07;3.94;;;3.45;;
66669;SDS011;53568;52.164;4.472;2023-10-13T00:40:38;4.52;;;3.94;;
66669;SDS011;53568;52.164;4.472;2023-10-13T00:43:05;4.12;;;3.73;;
66669;SDS011;53568;52.164;4.472;2023-10-13T00:48:37;3.77;;;3.56;;
66669;SDS011;53568;52.164;4.472;2023-10-13T00:51:11;3.38;;;3.27;;
66669;SDS011;53568;52.164;4.472;2023-10-13T00:53:47;2.80;;;2.79;;
66669;SDS011;53568;52.164;4.472;2023-10-13T00:56:17;2.85;;;2.72;;
66669;SDS011;53568;52.164;4.472;2023-10-13T00:58:53;3.00;;;2.78;;
66669;SDS011;53568;52.164;4.472;2023-10-13T01:01:22;3.03;;;2.82;;
66669;SDS011;53568;52.164;4.472;2023-10-13T01:03:54;2.88;;;2.71;;
66669;SDS011;53568;52.164;4.472;2023-10-13T01:06:23;3.27;;;3.09;;
66669;SDS011;53568;52.164;4.472;2023-10-13T01:08:56;3.38;;;3.22;;
66669;SDS011;53568;52.164;4.472;2023-10-13T01:11:35;3.53;;;3.49;;
66669;SDS011;53568;52.164;4.472;2023-10-13T01:14:01;3.90;;;3.89;;
66669;SDS011;53568;52.164;4.472;2023-10-13T01:16:29;4.29;;;4.29;;
66669;SDS011;53568;52.164;4.472;2023-10-13T01:18:55;5.21;;;5.21;;
66669;SDS011;53568;52.164;4.472;2023-10-13T01:21:24;5.91;;;5.91;;
66669;SDS011;53568;52.164;4.472;2023-10-13T01:23:55;5.87;;;5.87;;
66669;SDS011;53568;52.164;4.472;2023-10-13T01:26:20;6.48;;;6.48;;
66669;SDS011;53568;52.164;4.472;2023-10-13T01:28:49;6.73;;;6.73;;
66669;SDS011;53568;52.164;4.472;2023-10-13T01:31:16;6.88;;;6.88;;
66669;SDS011;53568;52.164;4.472;2023-10-13T01:33:51;6.85;;;6.85;;
66669;SDS011;53568;52.164;4.472;2023-10-13T01:36:22;7.55;;;7.55;;
66669;SDS011;53568;52.164;4.472;2023-10-13T01:38:49;7.91;;;7.91;;
66669;SDS011;53568;52.164;4.472;2023-10-13T01:41:18;9.04;;;9.04;;
66669;SDS011;53568;52.164;4.472;2023-10-13T01:43:45;9.51;;;9.51;;
66669;SDS011;53568;52.164;4.472;2023-10-13T01:46:11;10.14;;;10.14;;
66669;SDS011;53568;52.164;4.472;2023-10-13T01:48:41;10.86;;;10.86;;
66669;SDS011;53568;52.164;4.472;2023-10-13T01:51:08;11.70;;;11.70;;
66669;SDS011;53568;52.164;4.472;2023-10-13T01:53:38;12.87;;;12.87;;
66669;SDS011;53568;52.164;4.472;2023-10-13T01:56:05;11.71;;;11.71;;
66669;SDS011;53568;52.164;4.472;2023-10-13T01:58:35;11.17;;;11.17;;
66669;SDS011;53568;52.164;4.472;2023-10-13T02:01:02;11.44;;;11.44;;
66669;SDS011;53568;52.164;4.472;2023-10-13T02:03:32;10.75;;;10.75;;
66669;SDS011;53568;52.164;4.472;2023-10-13T02:05:58;10.37;;;10.37;;
66669;SDS011;53568;52.164;4.472;2023-10-13T02:08:29;10.31;;;10.30;;
66669;SDS011;53568;52.164;4.472;2023-10-13T02:10:56;10.01;;;10.00;;
66669;SDS011;53568;52.164;4.472;2023-10-13T02:13:24;9.92;;;9.92;;
66669;SDS011;53568;52.164;4.472;2023-10-13T02:15:54;10.15;;;10.15;;
66669;SDS011;53568;52.164;4.472;2023-10-13T02:18:22;9.55;;;9.55;;
66669;SDS011;53568;52.164;4.472;2023-10-13T02:20:52;10.04;;;10.04;;
66669;SDS011;53568;52.164;4.472;2023-10-13T02:23:22;10.08;;;10.08;;
66669;SDS011;53568;52.164;4.472;2023-10-13T02:25:54;10.46;;;10.42;;
66669;SDS011;53568;52.164;4.472;2023-10-13T02:28:36;10.44;;;10.44;;
66669;SDS011;53568;52.164;4.472;2023-10-13T02:31:02;10.13;;;10.13;;
66669;SDS011;53568;52.164;4.472;2023-10-13T02:33:29;10.41;;;10.41;;
66669;SDS011;53568;52.164;4.472;2023-10-13T02:36:02;9.99;;;9.99;;
66669;SDS011;53568;52.164;4.472;2023-10-13T02:38:33;10.69;;;10.69;;
66669;SDS011;53568;52.164;4.472;2023-10-13T02:41:02;10.79;;;10.76;;
66669;SDS011;53568;52.164;4.472;2023-10-13T02:43:37;10.59;;;10.59;;
66669;SDS011;53568;52.164;4.472;2023-10-13T02:46:03;10.99;;;10.89;;
66669;SDS011;53568;52.164;4.472;2023-10-13T02:48:29;10.80;;;10.80;;
66669;SDS011;53568;52.164;4.472;2023-10-13T02:51:05;10.46;;;10.45;;
66669;SDS011;53568;52.164;4.472;2023-10-13T02:53:41;10.84;;;10.84;;
66669;SDS011;53568;52.164;4.472;2023-10-13T02:56:18;10.92;;;10.87;;
66669;SDS011;53568;52.164;4.472;2023-10-13T02:58:47;10.56;;;10.54;;
66669;SDS011;53568;52.164;4.472;2023-10-13T03:01:19;10.08;;;10.08;;
66669;SDS011;53568;52.164;4.472;2023-10-13T03:03:50;10.28;;;10.18;;
66669;SDS011;53568;52.164;4.472;2023-10-13T03:06:24;10.25;;;10.25;;
66669;SDS011;53568;52.164;4.472;2023-10-13T03:11:44;10.33;;;10.33;;
66669;SDS011;53568;52.164;4.472;2023-10-13T03:14:14;10.83;;;10.83;;
66669;SDS011;53568;52.164;4.472;2023-10-13T03:16:54;11.40;;;11.40;;
66669;SDS011;53568;52.164;4.472;2023-10-13T03:19:31;11.14;;;11.14;;
66669;SDS011;53568;52.164;4.472;2023-10-13T03:21:58;11.96;;;11.90;;
66669;SDS011;53568;52.164;4.472;2023-10-13T03:24:31;11.75;;;11.70;;
66669;SDS011;53568;52.164;4.472;2023-10-13T03:27:00;10.96;;;10.96;;
66669;SDS011;53568;52.164;4.472;2023-10-13T03:29:34;10.38;;;10.37;;
66669;SDS011;53568;52.164;4.472;2023-10-13T03:32:07;10.00;;;10.00;;
66669;SDS011;53568;52.164;4.472;2023-10-13T03:34:38;9.64;;;9.64;;
66669;SDS011;53568;52.164;4.472;2023-10-13T03:37:24;9.18;;;9.17;;
66669;SDS011;53568;52.164;4.472;2023-10-13T03:40:11;9.08;;;9.08;;
66669;SDS011;53568;52.164;4.472;2023-10-13T03:42:47;8.58;;;8.58;;
66669;SDS011;53568;52.164;4.472;2023-10-13T03:45:53;7.63;;;7.63;;
66669;SDS011;53568;52.164;4.472;2023-10-13T03:48:33;7.70;;;7.70;;
66669;SDS011;53568;52.164;4.472;2023-10-13T03:51:06;7.77;;;7.77;;
66669;SDS011;53568;52.164;4.472;2023-10-13T03:53:40;7.18;;;7.18;;
66669;SDS011;53568;52.164;4.472;2023-10-13T03:56:20;6.97;;;6.97;;
66669;SDS011;53568;52.164;4.472;2023-10-13T03:58:56;6.84;;;6.84;;
66669;SDS011;53568;52.164;4.472;2023-10-13T04:01:30;6.60;;;6.60;;
66669;SDS011;53568;52.164;4.472;2023-10-13T04:04:08;6.71;;;6.71;;
66669;SDS011;53568;52.164;4.472;2023-10-13T04:06:36;6.61;;;6.61;;
66669;SDS011;53568;52.164;4.472;2023-10-13T04:11:56;5.49;;;5.49;;
66669;SDS011;53568;52.164;4.472;2023-10-13T04:14:32;5.27;;;5.27;;
66669;SDS011;53568;52.164;4.472;2023-10-13T04:17:18;5.34;;;5.34;;
66669;SDS011;53568;52.164;4.472;2023-10-13T04:19:56;5.18;;;5.18;;
66669;SDS011;53568;52.164;4.472;2023-10-13T04:22:32;4.92;;;4.92;;
66669;SDS011;53568;52.164;4.472;2023-10-13T04:25:14;5.30;;;5.30;;
66669;SDS011;53568;52.164;4.472;2023-10-13T04:28:00;5.62;;;5.62;;
66669;SDS011;53568;52.164;4.472;2023-10-13T04:30:48;5.66;;;5.66;;
66669;SDS011;53568;52.164;4.472;2023-10-13T04:33:19;6.10;;;6.10;;
66669;SDS011;53568;52.164;4.472;2023-10-13T04:39:01;5.49;;;5.49;;
66669;SDS011;53568;52.164;4.472;2023-10-13T04:44:00;4.64;;;4.64;;
66669;SDS011;53568;52.164;4.472;2023-10-13T04:46:45;5.29;;;5.29;;
66669;SDS011;53568;52.164;4.472;2023-10-13T04:49:11;5.11;;;5.11;;
66669;SDS011;53568;52.164;4.472;2023-10-13T04:51:52;5.20;;;5.20;;
66669;SDS011;53568;52.164;4.472;2023-10-13T04:54:38;5.15;;;5.15;;
66669;SDS011;53568;52.164;4.472;2023-10-13T04:57:20;5.31;;;5.31;;
66669;SDS011;53568;52.164;4.472;2023-10-13T05:00:06;5.43;;;5.43;;
66669;SDS011;53568;52.164;4.472;2023-10-13T05:02:35;5.06;;;5.06;;
66669;SDS011;53568;52.164;4.472;2023-10-13T05:05:09;4.97;;;4.94;;
66669;SDS011;53568;52.164;4.472;2023-10-13T05:07:42;4.37;;;4.35;;
66669;SDS011;53568;52.164;4.472;2023-10-13T05:10:28;4.67;;;4.64;;
66669;SDS011;53568;52.164;4.472;2023-10-13T05:13:12;4.72;;;4.71;;
66669;SDS011;53568;52.164;4.472;2023-10-13T05:15:57;4.61;;;4.60;;
66669;SDS011;53568;52.164;4.472;2023-10-13T05:18:41;5.11;;;4.99;;
66669;SDS011;53568;52.164;4.472;2023-10-13T05:21:25;5.10;;;5.07;;
66669;SDS011;53568;52.164;4.472;2023-10-13T05:24:09;5.60;;;5.39;;
66669;SDS011;53568;52.164;4.472;2023-10-13T05:26:53;5.70;;;5.40;;
66669;SDS011;53568;52.164;4.472;2023-10-13T05:29:41;6.29;;;5.85;;
66669;SDS011;53568;52.164;4.472;2023-10-13T05:32:27;6.06;;;5.60;;
66669;SDS011;53568;52.164;4.472;2023-10-13T05:35:12;6.01;;;5.68;;
66669;SDS011;53568;52.164;4.472;2023-10-13T05:37:56;6.16;;;5.81;;
66669;SDS011;53568;52.164;4.472;2023-10-13T05:40:57;6.52;;;6.09;;
66669;SDS011;53568;52.164;4.472;2023-10-13T05:43:43;6.66;;;6.12;;
66669;SDS011;53568;52.164;4.472;2023-10-13T05:46:27;6.99;;;6.37;;
66669;SDS011;53568;52.164;4.472;2023-10-13T05:48:53;6.63;;;6.14;;
66669;SDS011;53568;52.164;4.472;2023-10-13T05:51:39;6.56;;;6.18;;
66669;SDS011;53568;52.164;4.472;2023-10-13T05:54:05;7.17;;;6.73;;
66669;SDS011;53568;52.164;4.472;2023-10-13T05:56:50;7.44;;;7.01;;
66669;SDS011;53568;52.164;4.472;2023-10-13T05:59:36;8.00;;;7.45;;
66669;SDS011;53568;52.164;4.472;2023-10-13T06:02:21;6.82;;;6.39;;
66669;SDS011;53568;52.164;4.472;2023-10-13T06:05:08;6.37;;;6.09;;
66669;SDS011;53568;52.164;4.472;2023-10-13T06:07:53;6.66;;;6.33;;
66669;SDS011;53568;52.164;4.472;2023-10-13T06:10:38;7.37;;;6.84;;
66669;SDS011;53568;52.164;4.472;2023-10-13T06:13:23;6.38;;;6.03;;
66669;SDS011;53568;52.164;4.472;2023-10-13T06:16:14;6.25;;;5.94;;
66669;SDS011;53568;52.164;4.472;2023-10-13T06:19:00;6.34;;;5.93;;
66669;SDS011;53568;52.164;4.472;2023-10-13T06:21:45;6.25;;;5.90;;
66669;SDS011;53568;52.164;4.472;2023-10-13T06:24:30;5.92;;;5.52;;
66669;SDS011;53568;52.164;4.472;2023-10-13T06:27:15;6.05;;;5.65;;
66669;SDS011;53568;52.164;4.472;2023-10-13T06:30:00;5.74;;;5.48;;
66669;SDS011;53568;52.164;4.472;2023-10-13T06:32:26;5.97;;;5.74;;
66669;SDS011;53568;52.164;4.472;2023-10-13T06:34:55;5.87;;;5.66;;
66669;SDS011;53568;52.164;4.472;2023-10-13T06:37:25;5.93;;;5.76;;
66669;SDS011;53568;52.164;4.472;2023-10-13T06:39:55;5.50;;;5.36;;
66669;SDS011;53568;52.164;4.472;2023-10-13T06:42:31;5.61;;;5.49;;
66669;SDS011;53568;52.164;4.472;2023-10-13T06:44:59;5.70;;;5.49;;
66669;SDS011;53568;52.164;4.472;2023-10-13T06:47:36;6.06;;;5.86;;
66669;SDS011;53568;52.164;4.472;2023-10-13T06:50:08;6.27;;;6.18;;
66669;SDS011;53568;52.164;4.472;2023-10-13T06:52:41;6.45;;;6.42;;
66669;SDS011;53568;52.164;4.472;2023-10-13T06:55:09;6.74;;;6.73;;
66669;SDS011;53568;52.164;4.472;2023-10-13T06:57:49;6.90;;;6.90;;
66669;SDS011;53568;52.164;4.472;2023-10-13T07:00:16;7.55;;;7.55;;
66669;SDS011;53568;52.164;4.472;2023-10-13T07:02:55;8.83;;;8.83;;
66669;SDS011;53568;52.164;4.472;2023-10-13T07:05:37;9.20;;;9.20;;
66669;SDS011;53568;52.164;4.472;2023-10-13T07:08:05;9.32;;;9.32;;
66669;SDS011;53568;52.164;4.472;2023-10-13T07:10:31;9.95;;;9.95;;
66669;SDS011;53568;52.164;4.472;2023-10-13T07:13:10;10.53;;;10.53;;
66669;SDS011;53568;52.164;4.472;2023-10-13T07:15:38;10.86;;;10.86;;
66669;SDS011;53568;52.164;4.472;2023-10-13T07:18:11;10.57;;;10.57;;
66669;SDS011;53568;52.164;4.472;2023-10-13T07:20:39;9.75;;;9.75;;
66669;SDS011;53568;52.164;4.472;2023-10-13T07:23:09;9.74;;;9.74;;
66669;SDS011;53568;52.164;4.472;2023-10-13T07:25:42;9.38;;;9.38;;
66669;SDS011;53568;52.164;4.472;2023-10-13T07:28:16;9.17;;;9.16;;
66669;SDS011;53568;52.164;4.472;2023-10-13T07:30:42;8.39;;;8.38;;
66669;SDS011;53568;52.164;4.472;2023-10-13T07:33:17;8.19;;;8.18;;
66669;SDS011;53568;52.164;4.472;2023-10-13T07:35:48;8.39;;;8.38;;
66669;SDS011;53568;52.164;4.472;2023-10-13T07:38:25;8.00;;;8.00;;
66669;SDS011;53568;52.164;4.472;2023-10-13T07:40:55;7.90;;;7.87;;
66669;SDS011;53568;52.164;4.472;2023-10-13T07:43:31;7.43;;;7.42;;
66669;SDS011;53568;52.164;4.472;2023-10-13T07:45:58;8.84;;;8.78;;
66669;SDS011;53568;52.164;4.472;2023-10-13T07:48:24;7.79;;;7.77;;
66669;SDS011;53568;52.164;4.472;2023-10-13T07:51:01;7.38;;;7.36;;
66669;SDS011;53568;52.164;4.472;2023-10-13T07:53:31;8.43;;;8.37;;
66669;SDS011;53568;52.164;4.472;2023-10-13T07:56:01;8.71;;;8.55;;
66669;SDS011;53568;52.164;4.472;2023-10-13T07:58:34;7.94;;;7.86;;
66669;SDS011;53568;52.164;4.472;2023-10-13T08:01:12;7.89;;;7.85;;
66669;SDS011;53568;52.164;4.472;2023-10-13T08:03:42;7.39;;;7.32;;
66669;SDS011;53568;52.164;4.472;2023-10-13T08:06:09;7.29;;;7.24;;
66669;SDS011;53568;52.164;4.472;2023-10-13T08:08:44;7.43;;;7.35;;
66669;SDS011;53568;52.164;4.472;2023-10-13T08:11:15;7.56;;;7.48;;
66669;SDS011;53568;52.164;4.472;2023-10-13T08:14:00;7.59;;;7.48;;
66669;SDS011;53568;52.164;4.472;2023-10-13T08:16:40;7.09;;;7.03;;
66669;SDS011;53568;52.164;4.472;2023-10-13T08:19:19;7.49;;;7.30;;
66669;SDS011;53568;52.164;4.472;2023-10-13T08:21:52;7.98;;;7.84;;
66669;SDS011;53568;52.164;4.472;2023-10-13T08:24:24;7.55;;;7.52;;
66669;SDS011;53568;52.164;4.472;2023-10-13T08:27:06;7.18;;;7.08;;
66669;SDS011;53568;52.164;4.472;2023-10-13T08:29:51;7.48;;;7.44;;
66669;SDS011;53568;52.164;4.472;2023-10-13T08:32:22;7.49;;;7.41;;
66669;SDS011;53568;52.164;4.472;2023-10-13T08:34:52;7.08;;;6.95;;
66669;SDS011;53568;52.164;4.472;2023-10-13T08:37:18;7.68;;;7.50;;
66669;SDS011;53568;52.164;4.472;2023-10-13T08:39:48;7.76;;;7.52;;
66669;SDS011;53568;52.164;4.472;2023-10-13T08:42:44;7.40;;;7.31;;
66669;SDS011;53568;52.164;4.472;2023-10-13T08:45:11;7.65;;;7.64;;
66669;SDS011;53568;52.164;4.472;2023-10-13T08:47:48;7.45;;;7.40;;
66669;SDS011;53568;52.164;4.472;2023-10-13T08:50:44;7.24;;;7.15;;
66669;SDS011;53568;52.164;4.472;2023-10-13T08:53:15;7.58;;;7.45;;
66669;SDS011;53568;52.164;4.472;2023-10-13T08:55:56;7.55;;;7.43;;
66669;SDS011;53568;52.164;4.472;2023-10-13T08:58:28;6.87;;;6.86;;
66669;SDS011;53568;52.164;4.472;2023-10-13T09:01:12;7.25;;;7.25;;
66669;SDS011;53568;52.164;4.472;2023-10-13T09:03:42;7.52;;;7.33;;
66669;SDS011;53568;52.164;4.472;2023-10-13T09:06:14;7.39;;;7.12;;
66669;SDS011;53568;52.164;4.472;2023-10-13T09:08:45;7.49;;;7.41;;
66669;SDS011;53568;52.164;4.472;2023-10-13T09:11:34;7.31;;;7.26;;
66669;SDS011;53568;52.164;4.472;2023-10-13T09:14:14;7.44;;;7.30;;
66669;SDS011;53568;52.164;4.472;2023-10-13T09:17:02;7.36;;;7.16;;
66669;SDS011;53568;52.164;4.472;2023-10-13T09:19:47;7.35;;;7.04;;
66669;SDS011;53568;52.164;4.472;2023-10-13T09:22:26;7.55;;;7.30;;
66669;SDS011;53568;52.164;4.472;2023-10-13T09:25:00;7.57;;;7.18;;
66669;SDS011;53568;52.164;4.472;2023-10-13T09:27:27;7.38;;;7.12;;
66669;SDS011;53568;52.164;4.472;2023-10-13T09:30:00;7.47;;;7.24;;
66669;SDS011;53568;52.164;4.472;2023-10-13T09:32:46;7.73;;;7.48;;
66669;SDS011;53568;52.164;4.472;2023-10-13T09:35:21;7.29;;;7.00;;
66669;SDS011;53568;52.164;4.472;2023-10-13T09:37:52;7.98;;;7.69;;
66669;SDS011;53568;52.164;4.472;2023-10-13T09:40:22;8.19;;;7.79;;
66669;SDS011;53568;52.164;4.472;2023-10-13T09:42:52;7.92;;;7.55;;
66669;SDS011;53568;52.164;4.472;2023-10-13T09:45:23;8.09;;;7.77;;
66669;SDS011;53568;52.164;4.472;2023-10-13T09:48:00;8.16;;;7.79;;
66669;SDS011;53568;52.164;4.472;2023-10-13T09:50:33;7.97;;;7.55;;
66669;SDS011;53568;52.164;4.472;2023-10-13T09:53:05;8.22;;;7.81;;
66669;SDS011;53568;52.164;4.472;2023-10-13T09:55:36;7.89;;;7.58;;
66669;SDS011;53568;52.164;4.472;2023-10-13T09:58:38;8.00;;;7.62;;
66669;SDS011;53568;52.164;4.472;2023-10-13T10:01:17;8.18;;;7.76;;
66669;SDS011;53568;52.164;4.472;2023-10-13T10:04:05;7.99;;;7.60;;
66669;SDS011;53568;52.164;4.472;2023-10-13T10:06:38;8.10;;;7.63;;
66669;SDS011;53568;52.164;4.472;2023-10-13T10:09:12;8.30;;;7.89;;
66669;SDS011;53568;52.164;4.472;2023-10-13T10:17:41;7.67;;;7.36;;
66669;SDS011;53568;52.164;4.472;2023-10-13T10:20:09;7.83;;;7.68;;
66669;SDS011;53568;52.164;4.472;2023-10-13T10:22:54;7.57;;;7.50;;
66669;SDS011;53568;52.164;4.472;2023-10-13T10:25:28;7.72;;;7.56;;
66669;SDS011;53568;52.164;4.472;2023-10-13T10:28:00;7.91;;;7.69;;
66669;SDS011;53568;52.164;4.472;2023-10-13T10:30:31;7.81;;;7.64;;
66669;SDS011;53568;52.164;4.472;2023-10-13T10:32:59;7.47;;;7.27;;
66669;SDS011;53568;52.164;4.472;2023-10-13T10:35:31;7.62;;;7.50;;
66669;SDS011;53568;52.164;4.472;2023-10-13T10:38:50;7.51;;;7.40;;
66669;SDS011;53568;52.164;4.472;2023-10-13T10:43:36;7.55;;;7.45;;
66669;SDS011;53568;52.164;4.472;2023-10-13T10:46:12;8.03;;;7.73;;
66669;SDS011;53568;52.164;4.472;2023-10-13T10:48:38;8.13;;;7.84;;
66669;SDS011;53568;52.164;4.472;2023-10-13T10:51:11;8.35;;;8.05;;
66669;SDS011;53568;52.164;4.472;2023-10-13T10:53:40;8.23;;;7.99;;
66669;SDS011;53568;52.164;4.472;2023-10-13T10:56:12;7.85;;;7.66;;
66669;SDS011;53568;52.164;4.472;2023-10-13T10:58:49;7.91;;;7.70;;
66669;SDS011;53568;52.164;4.472;2023-10-13T11:01:20;8.23;;;8.00;;
66669;SDS011;53568;52.164;4.472;2023-10-13T11:03:53;8.71;;;8.49;;
66669;SDS011;53568;52.164;4.472;2023-10-13T11:06:26;8.14;;;8.06;;
66669;SDS011;53568;52.164;4.472;2023-10-13T11:09:04;8.54;;;8.35;;
66669;SDS011;53568;52.164;4.472;2023-10-13T11:12:10;8.61;;;8.49;;
66669;SDS011;53568;52.164;4.472;2023-10-13T11:14:40;8.86;;;8.66;;
66669;SDS011;53568;52.164;4.472;2023-10-13T11:17:07;8.84;;;8.70;;
66669;SDS011;53568;52.164;4.472;2023-10-13T11:19:43;9.32;;;9.07;;
66669;SDS011;53568;52.164;4.472;2023-10-13T11:22:16;8.48;;;8.40;;
66669;SDS011;53568;52.164;4.472;2023-10-13T11:24:59;8.98;;;8.72;;
66669;SDS011;53568;52.164;4.472;2023-10-13T11:27:34;8.86;;;8.62;;
66669;SDS011;53568;52.164;4.472;2023-10-13T11:30:09;8.78;;;8.55;;
66669;SDS011;53568;52.164;4.472;2023-10-13T11:32:42;9.11;;;8.84;;
66669;SDS011;53568;52.164;4.472;2023-10-13T11:35:09;8.50;;;8.23;;
66669;SDS011;53568;52.164;4.472;2023-10-13T11:37:54;8.72;;;8.51;;
66669;SDS011;53568;52.164;4.472;2023-10-13T11:40:29;9.19;;;9.06;;
66669;SDS011;53568;52.164;4.472;2023-10-13T11:43:39;8.61;;;8.47;;
66669;SDS011;53568;52.164;4.472;2023-10-13T11:49:02;9.10;;;8.86;;
66669;SDS011;53568;52.164;4.472;2023-10-13T11:51:47;8.48;;;8.40;;
66669;SDS011;53568;52.164;4.472;2023-10-13T11:54:17;8.60;;;8.39;;
66669;SDS011;53568;52.164;4.472;2023-10-13T11:56:48;8.79;;;8.60;;
66669;SDS011;53568;52.164;4.472;2023-10-13T11:59:14;9.09;;;8.83;;
66669;SDS011;53568;52.164;4.472;2023-10-13T12:01:46;8.37;;;8.28;;
66669;SDS011;53568;52.164;4.472;2023-10-13T12:04:31;8.70;;;8.65;;
66669;SDS011;53568;52.164;4.472;2023-10-13T12:07:00;9.20;;;8.92;;
66669;SDS011;53568;52.164;4.472;2023-10-13T12:09:52;9.17;;;8.78;;
66669;SDS011;53568;52.164;4.472;2023-10-13T12:12:24;8.78;;;8.72;;
66669;SDS011;53568;52.164;4.472;2023-10-13T12:14:52;9.03;;;8.79;;
66669;SDS011;53568;52.164;4.472;2023-10-13T12:17:20;9.00;;;8.75;;
66669;SDS011;53568;52.164;4.472;2023-10-13T12:20:07;9.33;;;9.13;;
66669;SDS011;53568;52.164;4.472;2023-10-13T12:22:42;9.74;;;9.50;;
66669;SDS011;53568;52.164;4.472;2023-10-13T12:25:08;9.51;;;9.22;;
66669;SDS011;53568;52.164;4.472;2023-10-13T12:28:03;9.45;;;9.20;;
66669;SDS011;53568;52.164;4.472;2023-10-13T12:30:44;9.67;;;9.30;;
66669;SDS011;53568;52.164;4.472;2023-10-13T12:33:22;10.24;;;9.79;;
66669;SDS011;53568;52.164;4.472;2023-10-13T12:36:02;9.42;;;9.24;;
66669;SDS011;53568;52.164;4.472;2023-10-13T12:38:35;9.50;;;9.30;;
66669;SDS011;53568;52.164;4.472;2023-10-13T12:41:15;8.94;;;8.89;;
66669;SDS011;53568;52.164;4.472;2023-10-13T12:44:01;9.21;;;9.10;;
66669;SDS011;53568;52.164;4.472;2023-10-13T12:46:47;9.34;;;9.28;;
66669;SDS011;53568;52.164;4.472;2023-10-13T12:49:34;9.25;;;9.14;;
66669;SDS011;53568;52.164;4.472;2023-10-13T12:52:14;9.57;;;9.31;;
66669;SDS011;53568;52.164;4.472;2023-10-13T12:54:58;9.80;;;9.64;;
66669;SDS011;53568;52.164;4.472;2023-10-13T12:57:30;9.31;;;9.25;;
66669;SDS011;53568;52.164;4.472;2023-10-13T12:59:57;9.36;;;9.34;;
66669;SDS011;53568;52.164;4.472;2023-10-13T13:02:23;9.76;;;9.57;;
66669;SDS011;53568;52.164;4.472;2023-10-13T13:04:53;9.59;;;9.42;;
66669;SDS011;53568;52.164;4.472;2023-10-13T13:07:27;9.32;;;9.13;;
66669;SDS011;53568;52.164;4.472;2023-10-13T13:09:56;9.83;;;9.57;;
66669;SDS011;53568;52.164;4.472;2023-10-13T13:12:25;9.75;;;9.47;;
66669;SDS011;53568;52.164;4.472;2023-10-13T13:14:53;9.75;;;9.44;;
66669;SDS011;53568;52.164;4.472;2023-10-13T13:17:22;9.35;;;9.05;;
66669;SDS011;53568;52.164;4.472;2023-10-13T13:19:48;9.14;;;9.01;;
66669;SDS011;53568;52.164;4.472;2023-10-13T13:22:14;9.22;;;9.05;;
66669;SDS011;53568;52.164;4.472;2023-10-13T13:24:39;9.58;;;9.30;;
66669;SDS011;53568;52.164;4.472;2023-10-13T13:27:13;9.13;;;8.92;;
66669;SDS011;53568;52.164;4.472;2023-10-13T13:29:44;9.03;;;8.74;;
66669;SDS011;53568;52.164;4.472;2023-10-13T13:32:10;9.32;;;9.11;;
66669;SDS011;53568;52.164;4.472;2023-10-13T13:34:49;9.51;;;9.11;;
66669;SDS011;53568;52.164;4.472;2023-10-13T13:37:30;9.93;;;9.58;;
66669;SDS011;53568;52.164;4.472;2023-10-13T13:39:56;9.04;;;8.81;;
66669;SDS011;53568;52.164;4.472;2023-10-13T13:42:27;9.10;;;8.70;;
66669;SDS011;53568;52.164;4.472;2023-10-13T13:44:54;8.96;;;8.65;;
66669;SDS011;53568;52.164;4.472;2023-10-13T13:47:23;8.52;;;8.17;;
66669;SDS011;53568;52.164;4.472;2023-10-13T13:49:49;9.01;;;8.53;;
66669;SDS011;53568;52.164;4.472;2023-10-13T13:52:19;9.90;;;9.04;;
66669;SDS011;53568;52.164;4.472;2023-10-13T13:54:58;9.60;;;8.83;;
66669;SDS011;53568;52.164;4.472;2023-10-13T13:57:28;8.94;;;8.44;;
66669;SDS011;53568;52.164;4.472;2023-10-13T13:59:55;9.89;;;9.16;;
66669;SDS011;53568;52.164;4.472;2023-10-13T14:02:23;9.91;;;9.15;;
66669;SDS011;53568;52.164;4.472;2023-10-13T14:04:48;9.66;;;9.08;;
66669;SDS011;53568;52.164;4.472;2023-10-13T14:07:18;9.45;;;8.96;;
66669;SDS011;53568;52.164;4.472;2023-10-13T14:09:49;9.74;;;9.00;;
66669;SDS011;53568;52.164;4.472;2023-10-13T14:12:20;9.70;;;8.99;;
66669;SDS011;53568;52.164;4.472;2023-10-13T14:14:55;10.24;;;9.35;;
66669;SDS011;53568;52.164;4.472;2023-10-13T14:17:22;11.13;;;10.17;;
66669;SDS011;53568;52.164;4.472;2023-10-13T14:19:57;10.24;;;9.59;;
66669;SDS011;53568;52.164;4.472;2023-10-13T14:22:25;9.90;;;9.21;;
66669;SDS011;53568;52.164;4.472;2023-10-13T14:24:51;9.66;;;8.89;;
66669;SDS011;53568;52.164;4.472;2023-10-13T14:27:20;9.42;;;8.70;;
66669;SDS011;53568;52.164;4.472;2023-10-13T14:29:51;9.09;;;8.16;;
66669;SDS011;53568;52.164;4.472;2023-10-13T14:32:21;9.58;;;8.44;;
66669;SDS011;53568;52.164;4.472;2023-10-13T14:34:50;9.92;;;8.41;;
66669;SDS011;53568;52.164;4.472;2023-10-13T14:37:19;9.72;;;8.38;;
66669;SDS011;53568;52.164;4.472;2023-10-13T14:39:55;10.48;;;8.56;;
66669;SDS011;53568;52.164;4.472;2023-10-13T14:42:25;10.72;;;8.87;;
66669;SDS011;53568;52.164;4.472;2023-10-13T14:44:51;11.56;;;9.22;;
66669;SDS011;53568;52.164;4.472;2023-10-13T14:47:21;10.67;;;8.61;;
66669;SDS011;53568;52.164;4.472;2023-10-13T14:49:56;10.40;;;8.55;;
66669;SDS011;53568;52.164;4.472;2023-10-13T14:52:25;10.11;;;8.43;;
66669;SDS011;53568;52.164;4.472;2023-10-13T14:54:51;9.42;;;7.57;;
66669;SDS011;53568;52.164;4.472;2023-10-13T14:57:20;8.92;;;7.23;;
66669;SDS011;53568;52.164;4.472;2023-10-13T14:59:55;8.76;;;7.08;;
66669;SDS011;53568;52.164;4.472;2023-10-13T15:02:22;8.14;;;6.59;;
66669;SDS011;53568;52.164;4.472;2023-10-13T15:04:48;7.46;;;6.04;;
66669;SDS011;53568;52.164;4.472;2023-10-13T15:07:14;6.71;;;5.51;;
66669;SDS011;53568;52.164;4.472;2023-10-13T15:09:41;7.43;;;6.12;;
66669;SDS011;53568;52.164;4.472;2023-10-13T15:12:08;7.43;;;6.28;;
66669;SDS011;53568;52.164;4.472;2023-10-13T15:14:36;7.35;;;6.70;;
66669;SDS011;53568;52.164;4.472;2023-10-13T15:17:04;8.54;;;7.95;;
66669;SDS011;53568;52.164;4.472;2023-10-13T15:19:31;9.29;;;8.62;;
66669;SDS011;53568;52.164;4.472;2023-10-13T15:22:08;9.86;;;9.29;;
66669;SDS011;53568;52.164;4.472;2023-10-13T15:24:46;10.44;;;9.92;;
66669;SDS011;53568;52.164;4.472;2023-10-13T15:27:25;10.78;;;10.32;;
66669;SDS011;53568;52.164;4.472;2023-10-13T15:29:54;11.19;;;10.70;;
66669;SDS011;53568;52.164;4.472;2023-10-13T15:32:19;11.86;;;11.35;;
66669;SDS011;53568;52.164;4.472;2023-10-13T15:35:03;11.15;;;10.70;;
66669;SDS011;53568;52.164;4.472;2023-10-13T15:37:29;11.86;;;11.35;;
66669;SDS011;53568;52.164;4.472;2023-10-13T15:39:55;12.00;;;11.46;;
66669;SDS011;53568;52.164;4.472;2023-10-13T15:42:20;12.34;;;11.82;;
66669;SDS011;53568;52.164;4.472;2023-10-13T15:44:46;11.34;;;10.99;;
66669;SDS011;53568;52.164;4.472;2023-10-13T15:47:13;11.60;;;11.14;;
66669;SDS011;53568;52.164;4.472;2023-10-13T15:49:39;11.66;;;11.14;;
66669;SDS011;53568;52.164;4.472;2023-10-13T15:52:07;11.76;;;11.13;;